createdAt,value
2022-10-21T00:03:16.747Z,80.4
2022-10-21T00:18:29.212Z,80.4
2022-10-21T00:33:38.491Z,80.7
2022-10-21T00:48:47.860Z,80.9
2022-10-21T01:03:57.240Z,80.9
2022-10-21T01:19:07.008Z,80.9
2022-10-21T01:34:16.672Z,80.9
2022-10-21T01:49:26.043Z,81
2022-10-21T02:04:35.567Z,81.2
2022-10-21T02:19:45.453Z,81.4
2022-10-21T02:34:55.597Z,81.6
2022-10-21T02:50:04.643Z,81.8
2022-10-21T03:05:14.436Z,81.9
2022-10-21T03:20:23.987Z,81.9
2022-10-21T03:35:33.618Z,82
2022-10-21T03:50:42.719Z,82.1
2022-10-21T04:05:52.487Z,82.1
2022-10-21T04:21:02.611Z,82.2
2022-10-21T04:36:11.719Z,82.3
2022-10-21T04:51:21.297Z,82.3
2022-10-21T05:06:33.036Z,82.4
2022-10-21T05:21:42.779Z,82.5
2022-10-21T05:36:51.709Z,82.6
2022-10-21T05:52:01.159Z,82.7
2022-10-21T06:07:11.309Z,82.7
2022-10-21T06:22:21.142Z,83
2022-10-21T06:37:30.908Z,83.5
2022-10-21T06:52:40.283Z,83.2
2022-10-21T07:07:49.752Z,83
2022-10-21T07:22:58.772Z,83.1
2022-10-21T07:38:08.050Z,83.1
2022-10-21T07:53:19.745Z,83
2022-10-21T08:08:30.191Z,82.9
2022-10-21T08:23:39.657Z,82.8
2022-10-21T08:38:49.346Z,82.7
2022-10-21T08:53:59.232Z,81.9
2022-10-21T09:09:09.717Z,82.7
2022-10-21T09:24:21.062Z,82.3
2022-10-21T09:39:31.385Z,82.1
2022-10-21T09:54:41.021Z,81.9
2022-10-21T10:09:50.659Z,81.8
2022-10-21T10:25:00.408Z,81.8
2022-10-21T10:40:10.503Z,81.9
2022-10-21T10:55:22.283Z,82
2022-10-21T11:10:32.724Z,82.2
2022-10-21T11:25:43.082Z,82.3
2022-10-21T11:40:53.101Z,82.4
2022-10-21T11:56:03.138Z,82.5
2022-10-21T12:11:13.170Z,82.7
2022-10-21T12:26:23.331Z,82.7
2022-10-21T12:41:33.269Z,83.6
2022-10-21T12:56:43.291Z,82.9
2022-10-21T13:11:52.656Z,83
2022-10-21T13:27:02.283Z,83.5
2022-10-21T13:42:24.940Z,83.4
2022-10-21T13:57:35.125Z,83.7
2022-10-21T14:12:45.008Z,83.9
2022-10-21T14:27:54.157Z,84
2022-10-21T14:43:04.002Z,84.2
2022-10-21T14:58:14.699Z,84.1
2022-10-21T15:13:24.631Z,84.6
2022-10-21T15:28:34.184Z,84.8
2022-10-21T15:43:43.849Z,85.1
2022-10-21T15:58:53.597Z,85
2022-10-21T16:14:02.804Z,85.2
2022-10-21T16:29:15.198Z,85.5
2022-10-21T16:44:25.081Z,85.8
2022-10-21T16:59:34.927Z,85.9
2022-10-21T17:14:44.579Z,86.1
2022-10-21T17:29:54.194Z,86.2
2022-10-21T17:45:04.617Z,86.3
2022-10-21T18:00:14.267Z,86.4
2022-10-21T18:15:23.830Z,86.6
2022-10-21T18:30:33.314Z,86.7
2022-10-21T18:45:43.024Z,86.9
2022-10-21T19:00:52.448Z,87
2022-10-21T19:17:19.712Z,88.2
2022-10-21T19:32:29.885Z,89.2
2022-10-21T19:47:38.945Z,89
2022-10-21T20:02:48.519Z,88.6
2022-10-21T20:17:57.863Z,89
2022-10-21T20:33:07.542Z,89
2022-10-21T20:48:17.062Z,89
2022-10-21T21:03:26.523Z,89.1
2022-10-21T21:18:35.789Z,89.2
2022-10-21T21:33:45.173Z,88.1
2022-10-21T21:49:06.321Z,85
2022-10-21T22:04:16.746Z,82
2022-10-21T22:19:27.142Z,80.9
2022-10-21T22:34:36.145Z,82.6
2022-10-21T22:49:45.471Z,83.9
2022-10-21T23:04:54.931Z,85.2
2022-10-21T23:20:04.445Z,84.7
2022-10-21T23:35:13.882Z,84.2
2022-10-21T23:50:23.158Z,85.8
